Westlake, Texas
Current Conditions -  °F | °C
As of 5:53 AM on Thursday 23 Oct 2014 (Local Time) from KAFW Reporting Station
Overcast Overcast  
Wind Chill: 65°   Ceiling: 6000
Heat Index: 65°   Visibility: 10mi
Dew Point: 53°   Wind: 6mph
Humidity: 65%   Direction: 130°SE
Pressure: 30.12"   Gusts: NA
Location:  32.996°N, 97.2275°W
Report Text: KAFW 231053Z 13005KT 10SM OVC060 18/12 A3012 RMK AO2 SLP189 T01830117
Loading
Personal Weather Stations






























Interactive Weather Map
Tropical Storm Tracking
New forecast layout! Learn more

10-Day Weather Forecast

Advertisements
Track Severe Weather on mobile